Погода Сауримона неделю

Южная Дунда, Ангола

13 - 19 июня
  • 13июня
    Сегодня
    +14°
    +31°
    Ясно и безоблачно
    ВремяПогодаТемператураВлажностьДавлениеВетер, м/сВероятность осадков
    01:00Ясно и безоблачно+17°C51 %677 мм3.1 м/с1 %
    04:00Ясно и безоблачно+16°C51 %676 мм3.6 м/с1 %
    07:00Ясно и безоблачно+16°C49 %677 мм3.4 м/с1 %
    10:00Ясно и безоблачно+24°C29 %679 мм3.9 м/с1 %
    13:00Ясно и безоблачно+30°C24 %677 мм2.9 м/с1 %
    16:00Ясно и безоблачно+30°C25 %676 мм2.7 м/с1 %
    19:00Ясно и безоблачно+23°C36 %676 мм3.2 м/с1 %
    22:00Ясно и безоблачно+20°C43 %676 мм3.2 м/с1 %
  • 14июня
    Пятница
    +13°
    +31°
    Ясно и безоблачно
    ВремяПогодаТемператураВлажностьДавлениеВетер, м/сВероятность осадков
    01:00Небольшая облачность+18°C47 %676 мм3.4 м/с1 %
    04:00Ясно и безоблачно+16°C45 %676 мм3.5 м/с1 %
    07:00Ясно и безоблачно+16°C43 %677 мм3.6 м/с1 %
    10:00Ясно и безоблачно+24°C25 %679 мм4.2 м/с1 %
    13:00Ясно и безоблачно+30°C21 %677 мм2.6 м/с1 %
    16:00Ясно и безоблачно+30°C20 %676 мм2.3 м/с1 %
    19:00Ясно и безоблачно+23°C29 %675 мм3.7 м/с1 %
    22:00Ясно и безоблачно+20°C30 %676 мм3.7 м/с1 %
  • 15июня
    Суббота
    +13°
    +31°
    Ясно и безоблачно
    ВремяПогодаТемператураВлажностьДавлениеВетер, м/сВероятность осадков
    01:00Ясно и безоблачно+18°C35 %675 мм3.4 м/с1 %
    04:00Ясно и безоблачно+16°C38 %675 мм3.5 м/с1 %
    07:00Ясно и безоблачно+15°C40 %676 мм3.7 м/с1 %
    10:00Ясно и безоблачно+24°C23 %677 мм3.7 м/с1 %
    13:00Ясно и безоблачно+30°C17 %676 мм2.0 м/с1 %
    16:00Ясно и безоблачно+29°C17 %675 мм2.1 м/с1 %
    19:00Ясно и безоблачно+23°C27 %675 мм3.6 м/с1 %
    22:00Ясно и безоблачно+19°C35 %675 мм3.2 м/с1 %
  • 16июня
    Воскресенье
    +14°
    +31°
    Ясно и безоблачно
    ВремяПогодаТемператураВлажностьДавлениеВетер, м/сВероятность осадков
    01:00Ясно и безоблачно+16°C41 %674 мм3.0 м/с1 %
    04:00Ясно и безоблачно+15°C43 %674 мм3.4 м/с1 %
    07:00Ясно и безоблачно+15°C42 %675 мм3.8 м/с1 %
    10:00Ясно и безоблачно+24°C23 %677 мм4.5 м/с1 %
    13:00Ясно и безоблачно+30°C17 %675 мм2.6 м/с1 %
    16:00Ясно и безоблачно+29°C17 %674 мм2.5 м/с1 %
    19:00Ясно и безоблачно+23°C25 %674 мм3.7 м/с1 %
    22:00Ясно и безоблачно+19°C33 %675 мм3.3 м/с1 %
  • 17июня
    Понедельник
    +15°
    +32°
    Ясно и безоблачно
    ВремяПогодаТемператураВлажностьДавлениеВетер, м/сВероятность осадков
    01:00Ясно и безоблачно+16°C40 %674 мм2.9 м/с1 %
    04:00Ясно и безоблачно+15°C42 %675 мм3.2 м/с1 %
    07:00Ясно и безоблачно+15°C42 %676 мм3.3 м/с1 %
    10:00Ясно и безоблачно+25°C25 %677 мм3.6 м/с1 %
    13:00Ясно и безоблачно+31°C16 %676 мм0.9 м/с1 %
    16:00Ясно и безоблачно+31°C15 %675 мм0.9 м/с1 %
    19:00Ясно и безоблачно+23°C25 %674 мм2.3 м/с1 %
    22:00Ясно и безоблачно+20°C35 %675 мм3.1 м/с1 %
Мы используем cookies
Соглашаюсь